Sacramento, California
Traffic Map
Current Weather Conditions
Sacramento, California
Overcast Light Rain
Overcast
57°
Feels Like: 57°
Wind Chill: 57° Ceiling: 3300
Heat Index: 57° Visibility: 10mi
Dew Point: 53° Wind: 6mph
Humidity: 87% Direction: 130° (SE)
Pressure: 30.22in Gusts: 0mph
Raw Report DataKSAC 210153Z AUTO 13005KT 10SM -RA OVC033 14/12 A3022 RMK AO2 RAB34 SLP232 P0000 T01390117 TSNO
Traffic Incident Summary
Active as of:
Severity:
Category:
InformationThere was an issue retrieving the traffic information for this location. Please try a different location or try again shortly.
Advertisements
Track Severe Weather on mobile